sensor_id;sensor_type;location;lat;lon;timestamp;temperature;humidity
30520;DHT22;17300;50.374;8.006;2022-07-22T00:01:54;21.80;54.00
30520;DHT22;17300;50.374;8.006;2022-07-22T00:04:22;21.80;54.10
30520;DHT22;17300;50.374;8.006;2022-07-22T00:06:48;21.90;54.40
30520;DHT22;17300;50.374;8.006;2022-07-22T00:09:15;21.90;54.40
30520;DHT22;17300;50.374;8.006;2022-07-22T00:11:42;21.90;54.50
30520;DHT22;17300;50.374;8.006;2022-07-22T00:14:08;22.00;54.70
30520;DHT22;17300;50.374;8.006;2022-07-22T00:16:36;22.00;54.70
30520;DHT22;17300;50.374;8.006;2022-07-22T00:19:03;22.10;54.80
30520;DHT22;17300;50.374;8.006;2022-07-22T00:21:31;22.20;54.90
30520;DHT22;17300;50.374;8.006;2022-07-22T00:23:58;22.20;54.90
30520;DHT22;17300;50.374;8.006;2022-07-22T00:26:25;22.30;54.90
30520;DHT22;17300;50.374;8.006;2022-07-22T00:28:52;22.40;55.00
30520;DHT22;17300;50.374;8.006;2022-07-22T00:31:18;22.40;54.90
30520;DHT22;17300;50.374;8.006;2022-07-22T00:33:45;22.50;55.00
30520;DHT22;17300;50.374;8.006;2022-07-22T00:36:12;22.50;54.80
30520;DHT22;17300;50.374;8.006;2022-07-22T00:38:40;22.60;54.80
30520;DHT22;17300;50.374;8.006;2022-07-22T00:41:07;22.60;54.70
30520;DHT22;17300;50.374;8.006;2022-07-22T00:43:49;22.70;54.60
30520;DHT22;17300;50.374;8.006;2022-07-22T00:46:16;22.70;54.90
30520;DHT22;17300;50.374;8.006;2022-07-22T00:48:43;22.80;54.40
30520;DHT22;17300;50.374;8.006;2022-07-22T00:51:10;22.70;54.20
30520;DHT22;17300;50.374;8.006;2022-07-22T00:53:37;22.70;54.00
30520;DHT22;17300;50.374;8.006;2022-07-22T00:56:06;22.60;53.90
30520;DHT22;17300;50.374;8.006;2022-07-22T00:58:33;22.60;54.00
30520;DHT22;17300;50.374;8.006;2022-07-22T01:00:59;22.50;53.80
30520;DHT22;17300;50.374;8.006;2022-07-22T01:03:26;22.50;53.90
30520;DHT22;17300;50.374;8.006;2022-07-22T01:05:53;22.40;53.90
30520;DHT22;17300;50.374;8.006;2022-07-22T01:08:19;22.40;54.00
30520;DHT22;17300;50.374;8.006;2022-07-22T01:10:46;22.40;54.00
30520;DHT22;17300;50.374;8.006;2022-07-22T01:13:14;22.30;54.00
30520;DHT22;17300;50.374;8.006;2022-07-22T01:15:41;22.30;54.20
30520;DHT22;17300;50.374;8.006;2022-07-22T01:18:08;22.20;54.30
30520;DHT22;17300;50.374;8.006;2022-07-22T01:20:36;22.20;54.50
30520;DHT22;17300;50.374;8.006;2022-07-22T01:23:03;22.10;54.70
30520;DHT22;17300;50.374;8.006;2022-07-22T01:25:29;22.20;54.90
30520;DHT22;17300;50.374;8.006;2022-07-22T01:27:56;22.10;54.90
30520;DHT22;17300;50.374;8.006;2022-07-22T01:30:23;22.20;55.10
30520;DHT22;17300;50.374;8.006;2022-07-22T01:32:49;22.20;55.10
30520;DHT22;17300;50.374;8.006;2022-07-22T01:35:16;22.30;55.30
30520;DHT22;17300;50.374;8.006;2022-07-22T01:37:44;22.30;55.20
30520;DHT22;17300;50.374;8.006;2022-07-22T01:40:11;22.30;55.20
30520;DHT22;17300;50.374;8.006;2022-07-22T01:42:38;22.40;55.30
30520;DHT22;17300;50.374;8.006;2022-07-22T01:45:06;22.40;55.30
30520;DHT22;17300;50.374;8.006;2022-07-22T01:47:33;22.50;55.40
30520;DHT22;17300;50.374;8.006;2022-07-22T01:50:00;22.50;55.40
30520;DHT22;17300;50.374;8.006;2022-07-22T01:52:26;22.50;55.30
30520;DHT22;17300;50.374;8.006;2022-07-22T01:54:55;22.60;55.20
30520;DHT22;17300;50.374;8.006;2022-07-22T01:57:21;22.60;55.20
30520;DHT22;17300;50.374;8.006;2022-07-22T01:59:48;22.60;55.10
30520;DHT22;17300;50.374;8.006;2022-07-22T02:02:21;22.60;54.90
30520;DHT22;17300;50.374;8.006;2022-07-22T02:04:48;22.70;54.90
30520;DHT22;17300;50.374;8.006;2022-07-22T02:07:14;22.70;54.70
30520;DHT22;17300;50.374;8.006;2022-07-22T02:09:42;22.70;54.70
30520;DHT22;17300;50.374;8.006;2022-07-22T02:12:10;22.70;54.60
30520;DHT22;17300;50.374;8.006;2022-07-22T02:14:36;22.70;54.60
30520;DHT22;17300;50.374;8.006;2022-07-22T02:17:03;22.70;54.50
30520;DHT22;17300;50.374;8.006;2022-07-22T02:19:30;22.80;54.60
30520;DHT22;17300;50.374;8.006;2022-07-22T02:21:57;22.80;54.60
30520;DHT22;17300;50.374;8.006;2022-07-22T02:24:23;22.80;54.50
30520;DHT22;17300;50.374;8.006;2022-07-22T02:26:50;22.80;54.50
30520;DHT22;17300;50.374;8.006;2022-07-22T02:29:18;22.80;54.50
30520;DHT22;17300;50.374;8.006;2022-07-22T02:31:45;22.80;54.50
30520;DHT22;17300;50.374;8.006;2022-07-22T02:34:12;22.90;54.40
30520;DHT22;17300;50.374;8.006;2022-07-22T02:36:39;22.80;54.30
30520;DHT22;17300;50.374;8.006;2022-07-22T02:39:06;22.90;54.40
30520;DHT22;17300;50.374;8.006;2022-07-22T02:41:32;22.90;54.30
30520;DHT22;17300;50.374;8.006;2022-07-22T02:43:59;22.90;54.30
30520;DHT22;17300;50.374;8.006;2022-07-22T02:46:27;22.90;54.20
30520;DHT22;17300;50.374;8.006;2022-07-22T02:48:55;22.90;54.10
30520;DHT22;17300;50.374;8.006;2022-07-22T02:51:22;22.90;54.00
30520;DHT22;17300;50.374;8.006;2022-07-22T02:53:56;22.90;54.00
30520;DHT22;17300;50.374;8.006;2022-07-22T02:56:23;22.90;54.20
30520;DHT22;17300;50.374;8.006;2022-07-22T02:58:49;22.90;54.00
30520;DHT22;17300;50.374;8.006;2022-07-22T03:01:24;22.90;54.00
30520;DHT22;17300;50.374;8.006;2022-07-22T03:03:52;22.90;54.10
30520;DHT22;17300;50.374;8.006;2022-07-22T03:06:19;22.90;54.00
30520;DHT22;17300;50.374;8.006;2022-07-22T03:08:46;22.90;54.00
30520;DHT22;17300;50.374;8.006;2022-07-22T03:11:13;22.90;54.00
30520;DHT22;17300;50.374;8.006;2022-07-22T03:13:40;22.90;54.00
30520;DHT22;17300;50.374;8.006;2022-07-22T03:16:06;22.90;54.10
30520;DHT22;17300;50.374;8.006;2022-07-22T03:18:34;22.90;54.10
30520;DHT22;17300;50.374;8.006;2022-07-22T03:21:02;22.90;54.20
30520;DHT22;17300;50.374;8.006;2022-07-22T03:23:29;22.90;54.20
30520;DHT22;17300;50.374;8.006;2022-07-22T03:25:56;22.90;54.00
30520;DHT22;17300;50.374;8.006;2022-07-22T03:28:23;22.90;53.90
30520;DHT22;17300;50.374;8.006;2022-07-22T03:30:49;22.90;53.90
30520;DHT22;17300;50.374;8.006;2022-07-22T03:33:16;22.90;53.90
30520;DHT22;17300;50.374;8.006;2022-07-22T03:35:43;22.90;53.90
30520;DHT22;17300;50.374;8.006;2022-07-22T03:38:11;22.90;53.90
30520;DHT22;17300;50.374;8.006;2022-07-22T03:40:38;22.90;53.90
30520;DHT22;17300;50.374;8.006;2022-07-22T03:43:04;22.90;53.90
30520;DHT22;17300;50.374;8.006;2022-07-22T03:45:31;22.90;54.00
30520;DHT22;17300;50.374;8.006;2022-07-22T03:47:58;22.80;53.90
30520;DHT22;17300;50.374;8.006;2022-07-22T03:50:25;22.80;53.80
30520;DHT22;17300;50.374;8.006;2022-07-22T03:52:52;22.80;54.00
30520;DHT22;17300;50.374;8.006;2022-07-22T03:55:20;22.80;54.00
30520;DHT22;17300;50.374;8.006;2022-07-22T03:57:47;22.80;54.00
30520;DHT22;17300;50.374;8.006;2022-07-22T04:00:14;22.80;54.10
30520;DHT22;17300;50.374;8.006;2022-07-22T04:02:41;22.80;54.00
30520;DHT22;17300;50.374;8.006;2022-07-22T04:05:08;22.80;54.00
30520;DHT22;17300;50.374;8.006;2022-07-22T04:07:34;22.80;54.10
30520;DHT22;17300;50.374;8.006;2022-07-22T04:10:01;22.80;54.10
30520;DHT22;17300;50.374;8.006;2022-07-22T04:12:33;22.80;54.10
30520;DHT22;17300;50.374;8.006;2022-07-22T04:15:00;22.80;54.10
30520;DHT22;17300;50.374;8.006;2022-07-22T04:17:27;22.90;54.10
30520;DHT22;17300;50.374;8.006;2022-07-22T04:19:55;22.80;54.00
30520;DHT22;17300;50.374;8.006;2022-07-22T04:22:22;22.80;54.20
30520;DHT22;17300;50.374;8.006;2022-07-22T04:24:49;22.80;54.20
30520;DHT22;17300;50.374;8.006;2022-07-22T04:27:16;22.80;54.20
30520;DHT22;17300;50.374;8.006;2022-07-22T04:29:44;22.80;54.30
30520;DHT22;17300;50.374;8.006;2022-07-22T04:32:16;22.90;54.40
30520;DHT22;17300;50.374;8.006;2022-07-22T04:34:43;22.90;54.60
30520;DHT22;17300;50.374;8.006;2022-07-22T04:37:10;22.90;54.40
30520;DHT22;17300;50.374;8.006;2022-07-22T04:39:36;22.90;54.40
30520;DHT22;17300;50.374;8.006;2022-07-22T04:42:03;23.00;54.40
30520;DHT22;17300;50.374;8.006;2022-07-22T04:44:30;23.00;54.40
30520;DHT22;17300;50.374;8.006;2022-07-22T04:46:58;23.00;54.40
30520;DHT22;17300;50.374;8.006;2022-07-22T04:49:25;23.00;54.40
30520;DHT22;17300;50.374;8.006;2022-07-22T04:51:52;23.00;54.90
30520;DHT22;17300;50.374;8.006;2022-07-22T04:54:19;23.00;54.20
30520;DHT22;17300;50.374;8.006;2022-07-22T04:56:45;23.00;54.30
30520;DHT22;17300;50.374;8.006;2022-07-22T04:59:12;23.00;54.30
30520;DHT22;17300;50.374;8.006;2022-07-22T05:01:39;23.00;54.20
30520;DHT22;17300;50.374;8.006;2022-07-22T05:04:09;23.00;54.30
30520;DHT22;17300;50.374;8.006;2022-07-22T05:06:36;23.00;54.40
30520;DHT22;17300;50.374;8.006;2022-07-22T05:09:05;23.10;54.60
30520;DHT22;17300;50.374;8.006;2022-07-22T05:11:34;23.10;54.60
30520;DHT22;17300;50.374;8.006;2022-07-22T05:14:01;23.10;54.70
30520;DHT22;17300;50.374;8.006;2022-07-22T05:16:30;23.20;54.70
30520;DHT22;17300;50.374;8.006;2022-07-22T05:18:57;23.30;54.80
30520;DHT22;17300;50.374;8.006;2022-07-22T05:21:25;23.20;54.50
30520;DHT22;17300;50.374;8.006;2022-07-22T05:23:52;23.30;54.60
30520;DHT22;17300;50.374;8.006;2022-07-22T05:26:18;23.30;54.50
30520;DHT22;17300;50.374;8.006;2022-07-22T05:28:45;23.40;54.60
30520;DHT22;17300;50.374;8.006;2022-07-22T05:31:12;23.40;54.60
30520;DHT22;17300;50.374;8.006;2022-07-22T05:33:39;23.50;54.60
30520;DHT22;17300;50.374;8.006;2022-07-22T05:36:06;23.50;54.60
30520;DHT22;17300;50.374;8.006;2022-07-22T05:38:36;23.50;54.60
30520;DHT22;17300;50.374;8.006;2022-07-22T05:41:03;23.60;54.60
30520;DHT22;17300;50.374;8.006;2022-07-22T05:43:30;23.70;54.60
30520;DHT22;17300;50.374;8.006;2022-07-22T05:45:56;23.80;54.60
30520;DHT22;17300;50.374;8.006;2022-07-22T05:48:23;23.80;54.60
30520;DHT22;17300;50.374;8.006;2022-07-22T05:50:50;24.00;54.70
30520;DHT22;17300;50.374;8.006;2022-07-22T05:53:17;24.00;54.50
30520;DHT22;17300;50.374;8.006;2022-07-22T05:55:45;24.10;54.50
30520;DHT22;17300;50.374;8.006;2022-07-22T05:58:12;24.30;54.80
30520;DHT22;17300;50.374;8.006;2022-07-22T06:00:39;24.50;54.90
30520;DHT22;17300;50.374;8.006;2022-07-22T06:03:06;24.70;55.10
30520;DHT22;17300;50.374;8.006;2022-07-22T06:05:32;24.90;55.50
30520;DHT22;17300;50.374;8.006;2022-07-22T06:08:01;25.30;55.70
30520;DHT22;17300;50.374;8.006;2022-07-22T06:10:29;25.70;56.10
30520;DHT22;17300;50.374;8.006;2022-07-22T06:12:57;26.20;56.60
30520;DHT22;17300;50.374;8.006;2022-07-22T06:15:23;26.70;55.60
30520;DHT22;17300;50.374;8.006;2022-07-22T06:17:50;27.10;54.50
30520;DHT22;17300;50.374;8.006;2022-07-22T06:20:17;27.60;54.60
30520;DHT22;17300;50.374;8.006;2022-07-22T06:22:44;28.00;54.20
30520;DHT22;17300;50.374;8.006;2022-07-22T06:25:11;28.40;52.90
30520;DHT22;17300;50.374;8.006;2022-07-22T06:27:38;28.80;52.70
30520;DHT22;17300;50.374;8.006;2022-07-22T06:30:07;29.30;52.30
30520;DHT22;17300;50.374;8.006;2022-07-22T06:32:34;29.70;51.30
30520;DHT22;17300;50.374;8.006;2022-07-22T06:35:01;30.00;50.10
30520;DHT22;17300;50.374;8.006;2022-07-22T06:37:28;30.20;49.10
30520;DHT22;17300;50.374;8.006;2022-07-22T06:39:55;30.10;43.50
30520;DHT22;17300;50.374;8.006;2022-07-22T06:42:22;30.30;46.50
30520;DHT22;17300;50.374;8.006;2022-07-22T06:44:49;30.60;48.60
30520;DHT22;17300;50.374;8.006;2022-07-22T06:47:17;31.20;48.70
30520;DHT22;17300;50.374;8.006;2022-07-22T06:49:43;31.90;48.90
30520;DHT22;17300;50.374;8.006;2022-07-22T06:52:10;32.70;48.80
30520;DHT22;17300;50.374;8.006;2022-07-22T06:54:37;33.60;48.10
30520;DHT22;17300;50.374;8.006;2022-07-22T06:57:03;34.40;47.00
30520;DHT22;17300;50.374;8.006;2022-07-22T06:59:30;35.30;45.80
30520;DHT22;17300;50.374;8.006;2022-07-22T07:01:57;36.10;44.10
30520;DHT22;17300;50.374;8.006;2022-07-22T07:04:25;36.90;42.70
30520;DHT22;17300;50.374;8.006;2022-07-22T07:06:52;37.50;41.40
30520;DHT22;17300;50.374;8.006;2022-07-22T07:09:18;38.20;40.60
30520;DHT22;17300;50.374;8.006;2022-07-22T07:11:45;38.90;39.50
30520;DHT22;17300;50.374;8.006;2022-07-22T07:14:12;39.50;38.50
30520;DHT22;17300;50.374;8.006;2022-07-22T07:16:39;40.10;37.60
30520;DHT22;17300;50.374;8.006;2022-07-22T07:19:05;40.60;36.60
30520;DHT22;17300;50.374;8.006;2022-07-22T07:21:34;41.00;35.20
30520;DHT22;17300;50.374;8.006;2022-07-22T07:24:00;41.30;33.90
30520;DHT22;17300;50.374;8.006;2022-07-22T07:26:27;41.40;33.10
30520;DHT22;17300;50.374;8.006;2022-07-22T07:28:54;41.30;31.90
30520;DHT22;17300;50.374;8.006;2022-07-22T07:31:21;41.10;31.10
30520;DHT22;17300;50.374;8.006;2022-07-22T07:33:48;40.80;30.60
30520;DHT22;17300;50.374;8.006;2022-07-22T07:36:15;40.20;30.00
30520;DHT22;17300;50.374;8.006;2022-07-22T07:38:43;39.70;29.90
30520;DHT22;17300;50.374;8.006;2022-07-22T07:41:10;39.10;29.90
30520;DHT22;17300;50.374;8.006;2022-07-22T07:43:36;38.60;31.00
30520;DHT22;17300;50.374;8.006;2022-07-22T07:46:03;38.40;32.20
30520;DHT22;17300;50.374;8.006;2022-07-22T07:48:30;38.50;33.30
30520;DHT22;17300;50.374;8.006;2022-07-22T07:50:57;38.80;33.90
30520;DHT22;17300;50.374;8.006;2022-07-22T07:53:24;39.40;34.10
30520;DHT22;17300;50.374;8.006;2022-07-22T07:55:52;40.00;33.40
30520;DHT22;17300;50.374;8.006;2022-07-22T07:58:19;40.70;32.60
30520;DHT22;17300;50.374;8.006;2022-07-22T08:00:46;41.40;32.10
30520;DHT22;17300;50.374;8.006;2022-07-22T08:03:13;42.10;31.60
30520;DHT22;17300;50.374;8.006;2022-07-22T08:05:40;42.80;31.00
30520;DHT22;17300;50.374;8.006;2022-07-22T08:08:07;43.40;30.30
30520;DHT22;17300;50.374;8.006;2022-07-22T08:10:34;44.00;29.80
30520;DHT22;17300;50.374;8.006;2022-07-22T08:13:04;44.50;29.10
30520;DHT22;17300;50.374;8.006;2022-07-22T08:15:31;44.90;28.10
30520;DHT22;17300;50.374;8.006;2022-07-22T08:17:58;45.00;27.10
30520;DHT22;17300;50.374;8.006;2022-07-22T08:20:26;44.90;26.60
30520;DHT22;17300;50.374;8.006;2022-07-22T08:22:53;44.70;26.50
30520;DHT22;17300;50.374;8.006;2022-07-22T08:25:21;44.40;26.20
30520;DHT22;17300;50.374;8.006;2022-07-22T08:27:48;44.00;25.90
30520;DHT22;17300;50.374;8.006;2022-07-22T08:30:16;43.60;26.10
30520;DHT22;17300;50.374;8.006;2022-07-22T08:32:43;43.20;26.50
30520;DHT22;17300;50.374;8.006;2022-07-22T08:35:10;43.10;27.10
30520;DHT22;17300;50.374;8.006;2022-07-22T08:37:38;43.10;27.40
30520;DHT22;17300;50.374;8.006;2022-07-22T08:40:06;43.40;27.50
30520;DHT22;17300;50.374;8.006;2022-07-22T08:42:37;43.70;27.50
30520;DHT22;17300;50.374;8.006;2022-07-22T08:45:04;44.00;27.20
30520;DHT22;17300;50.374;8.006;2022-07-22T08:47:32;44.50;27.10
30520;DHT22;17300;50.374;8.006;2022-07-22T08:49:59;45.00;27.00
30520;DHT22;17300;50.374;8.006;2022-07-22T08:52:26;45.40;26.60
30520;DHT22;17300;50.374;8.006;2022-07-22T08:54:53;46.00;26.20
30520;DHT22;17300;50.374;8.006;2022-07-22T08:57:20;46.40;25.70
30520;DHT22;17300;50.374;8.006;2022-07-22T08:59:51;46.90;25.40
30520;DHT22;17300;50.374;8.006;2022-07-22T09:02:18;47.30;24.70
30520;DHT22;17300;50.374;8.006;2022-07-22T09:04:52;47.80;24.90
30520;DHT22;17300;50.374;8.006;2022-07-22T09:07:31;48.20;24.20
30520;DHT22;17300;50.374;8.006;2022-07-22T09:10:00;48.60;24.10
30520;DHT22;17300;50.374;8.006;2022-07-22T09:12:27;48.90;24.00
30520;DHT22;17300;50.374;8.006;2022-07-22T09:14:57;49.20;23.70
30520;DHT22;17300;50.374;8.006;2022-07-22T09:17:26;49.50;23.40
30520;DHT22;17300;50.374;8.006;2022-07-22T09:19:54;49.80;23.10
30520;DHT22;17300;50.374;8.006;2022-07-22T09:22:39;50.10;22.70
30520;DHT22;17300;50.374;8.006;2022-07-22T09:25:24;50.30;22.60
30520;DHT22;17300;50.374;8.006;2022-07-22T09:28:11;50.60;22.90
30520;DHT22;17300;50.374;8.006;2022-07-22T09:30:40;50.70;22.60
30520;DHT22;17300;50.374;8.006;2022-07-22T09:33:11;50.90;22.10
30520;DHT22;17300;50.374;8.006;2022-07-22T09:35:39;51.10;22.10
30520;DHT22;17300;50.374;8.006;2022-07-22T09:38:09;51.30;21.80
30520;DHT22;17300;50.374;8.006;2022-07-22T09:40:38;51.40;21.50
30520;DHT22;17300;50.374;8.006;2022-07-22T09:43:07;51.60;21.40
30520;DHT22;17300;50.374;8.006;2022-07-22T09:45:44;51.80;21.30
30520;DHT22;17300;50.374;8.006;2022-07-22T09:48:11;51.80;20.80
30520;DHT22;17300;50.374;8.006;2022-07-22T09:50:39;51.90;21.00
30520;DHT22;17300;50.374;8.006;2022-07-22T09:53:06;52.00;20.70
30520;DHT22;17300;50.374;8.006;2022-07-22T09:55:33;52.00;20.70
30520;DHT22;17300;50.374;8.006;2022-07-22T09:58:03;52.10;20.80
30520;DHT22;17300;50.374;8.006;2022-07-22T10:00:31;52.10;20.60
30520;DHT22;17300;50.374;8.006;2022-07-22T10:02:59;52.20;20.40
30520;DHT22;17300;50.374;8.006;2022-07-22T10:05:29;52.30;20.20
30520;DHT22;17300;50.374;8.006;2022-07-22T10:08:00;52.30;20.10
30520;DHT22;17300;50.374;8.006;2022-07-22T10:10:28;52.40;20.10
30520;DHT22;17300;50.374;8.006;2022-07-22T10:12:59;52.40;20.10
30520;DHT22;17300;50.374;8.006;2022-07-22T10:15:27;52.40;20.00
30520;DHT22;17300;50.374;8.006;2022-07-22T10:17:55;52.40;20.00
30520;DHT22;17300;50.374;8.006;2022-07-22T10:20:25;52.50;20.00
30520;DHT22;17300;50.374;8.006;2022-07-22T10:22:54;52.50;19.80
30520;DHT22;17300;50.374;8.006;2022-07-22T10:25:25;52.60;19.70
30520;DHT22;17300;50.374;8.006;2022-07-22T10:27:54;52.60;19.80
30520;DHT22;17300;50.374;8.006;2022-07-22T10:30:23;52.60;19.70
30520;DHT22;17300;50.374;8.006;2022-07-22T10:33:07;52.70;19.80
30520;DHT22;17300;50.374;8.006;2022-07-22T10:35:45;52.70;19.90
30520;DHT22;17300;50.374;8.006;2022-07-22T10:38:18;52.70;19.60
30520;DHT22;17300;50.374;8.006;2022-07-22T10:40:51;52.70;19.50
30520;DHT22;17300;50.374;8.006;2022-07-22T10:43:19;52.80;19.50
30520;DHT22;17300;50.374;8.006;2022-07-22T10:45:48;52.80;19.40
30520;DHT22;17300;50.374;8.006;2022-07-22T10:48:21;52.80;19.20
30520;DHT22;17300;50.374;8.006;2022-07-22T10:50:54;52.80;18.90
30520;DHT22;17300;50.374;8.006;2022-07-22T10:53:24;52.80;18.90
30520;DHT22;17300;50.374;8.006;2022-07-22T10:56:05;52.70;18.90
30520;DHT22;17300;50.374;8.006;2022-07-22T10:58:49;52.60;19.00
30520;DHT22;17300;50.374;8.006;2022-07-22T11:01:19;52.40;19.10
30520;DHT22;17300;50.374;8.006;2022-07-22T11:03:48;52.20;18.90
30520;DHT22;17300;50.374;8.006;2022-07-22T11:06:17;52.00;18.90
30520;DHT22;17300;50.374;8.006;2022-07-22T11:08:46;51.90;18.80
30520;DHT22;17300;50.374;8.006;2022-07-22T11:11:14;51.60;18.80
30520;DHT22;17300;50.374;8.006;2022-07-22T11:13:43;51.40;18.90
30520;DHT22;17300;50.374;8.006;2022-07-22T11:16:14;51.20;19.20
30520;DHT22;17300;50.374;8.006;2022-07-22T11:18:49;50.90;19.00
30520;DHT22;17300;50.374;8.006;2022-07-22T11:21:16;50.70;19.20
30520;DHT22;17300;50.374;8.006;2022-07-22T11:23:44;50.30;19.30
30520;DHT22;17300;50.374;8.006;2022-07-22T11:26:17;50.00;19.30
30520;DHT22;17300;50.374;8.006;2022-07-22T11:28:45;49.70;19.40
30520;DHT22;17300;50.374;8.006;2022-07-22T11:31:15;49.20;19.50
30520;DHT22;17300;50.374;8.006;2022-07-22T11:33:42;48.90;19.30
30520;DHT22;17300;50.374;8.006;2022-07-22T11:36:09;48.50;19.40
30520;DHT22;17300;50.374;8.006;2022-07-22T11:38:45;48.00;19.60
30520;DHT22;17300;50.374;8.006;2022-07-22T11:41:15;47.40;19.70
30520;DHT22;17300;50.374;8.006;2022-07-22T11:43:44;47.00;20.00
30520;DHT22;17300;50.374;8.006;2022-07-22T11:46:11;46.50;20.00
30520;DHT22;17300;50.374;8.006;2022-07-22T11:48:39;46.10;20.20
30520;DHT22;17300;50.374;8.006;2022-07-22T11:51:07;45.60;20.20
30520;DHT22;17300;50.374;8.006;2022-07-22T11:53:36;45.20;20.50
30520;DHT22;17300;50.374;8.006;2022-07-22T11:56:04;44.60;20.50
30520;DHT22;17300;50.374;8.006;2022-07-22T11:58:41;44.10;20.60
30520;DHT22;17300;50.374;8.006;2022-07-22T12:01:10;43.60;20.90
30520;DHT22;17300;50.374;8.006;2022-07-22T12:03:39;43.20;21.40
30520;DHT22;17300;50.374;8.006;2022-07-22T12:06:07;42.70;21.60
30520;DHT22;17300;50.374;8.006;2022-07-22T12:08:39;42.30;21.90
30520;DHT22;17300;50.374;8.006;2022-07-22T12:11:06;41.80;22.20
30520;DHT22;17300;50.374;8.006;2022-07-22T12:13:33;41.50;22.70
30520;DHT22;17300;50.374;8.006;2022-07-22T12:16:16;41.20;23.20
30520;DHT22;17300;50.374;8.006;2022-07-22T12:18:43;40.90;23.70
30520;DHT22;17300;50.374;8.006;2022-07-22T12:21:10;40.70;23.70
30520;DHT22;17300;50.374;8.006;2022-07-22T12:23:37;40.50;23.70
30520;DHT22;17300;50.374;8.006;2022-07-22T12:26:04;40.30;23.80
30520;DHT22;17300;50.374;8.006;2022-07-22T12:28:31;40.10;24.00
30520;DHT22;17300;50.374;8.006;2022-07-22T12:30:57;40.00;24.30
30520;DHT22;17300;50.374;8.006;2022-07-22T12:33:26;39.80;24.40
30520;DHT22;17300;50.374;8.006;2022-07-22T12:36:01;39.50;24.60
30520;DHT22;17300;50.374;8.006;2022-07-22T12:38:29;39.40;24.70
30520;DHT22;17300;50.374;8.006;2022-07-22T12:40:56;39.30;24.80
30520;DHT22;17300;50.374;8.006;2022-07-22T12:43:26;39.10;24.90
30520;DHT22;17300;50.374;8.006;2022-07-22T12:45:53;38.90;24.90
30520;DHT22;17300;50.374;8.006;2022-07-22T12:48:28;38.70;25.10
30520;DHT22;17300;50.374;8.006;2022-07-22T12:50:56;38.50;25.20
30520;DHT22;17300;50.374;8.006;2022-07-22T12:53:24;38.30;25.20
30520;DHT22;17300;50.374;8.006;2022-07-22T12:55:56;38.20;25.30
30520;DHT22;17300;50.374;8.006;2022-07-22T12:58:25;38.00;25.50
30520;DHT22;17300;50.374;8.006;2022-07-22T13:00:55;37.90;25.90
30520;DHT22;17300;50.374;8.006;2022-07-22T13:03:22;37.80;26.20
30520;DHT22;17300;50.374;8.006;2022-07-22T13:05:54;37.70;26.10
30520;DHT22;17300;50.374;8.006;2022-07-22T13:08:22;37.60;26.20
30520;DHT22;17300;50.374;8.006;2022-07-22T13:10:49;37.50;26.00
30520;DHT22;17300;50.374;8.006;2022-07-22T13:13:15;37.40;26.40
30520;DHT22;17300;50.374;8.006;2022-07-22T13:15:42;37.30;26.60
30520;DHT22;17300;50.374;8.006;2022-07-22T13:18:09;37.30;26.50
30520;DHT22;17300;50.374;8.006;2022-07-22T13:20:36;37.20;26.80
30520;DHT22;17300;50.374;8.006;2022-07-22T13:23:04;37.10;26.60
30520;DHT22;17300;50.374;8.006;2022-07-22T13:25:31;37.00;26.50
30520;DHT22;17300;50.374;8.006;2022-07-22T13:27:58;37.00;26.80
30520;DHT22;17300;50.374;8.006;2022-07-22T13:30:26;36.90;26.80
30520;DHT22;17300;50.374;8.006;2022-07-22T13:32:53;36.80;26.50
30520;DHT22;17300;50.374;8.006;2022-07-22T13:35:19;36.70;26.90
30520;DHT22;17300;50.374;8.006;2022-07-22T13:37:47;36.60;27.10
30520;DHT22;17300;50.374;8.006;2022-07-22T13:40:15;36.50;27.30
30520;DHT22;17300;50.374;8.006;2022-07-22T13:42:42;36.40;27.30
30520;DHT22;17300;50.374;8.006;2022-07-22T13:45:09;36.40;27.20
30520;DHT22;17300;50.374;8.006;2022-07-22T13:47:38;36.30;27.60
30520;DHT22;17300;50.374;8.006;2022-07-22T13:50:06;36.30;27.60
30520;DHT22;17300;50.374;8.006;2022-07-22T13:52:33;36.20;27.50
30520;DHT22;17300;50.374;8.006;2022-07-22T13:54:59;36.20;27.70
30520;DHT22;17300;50.374;8.006;2022-07-22T13:57:27;36.10;27.70
30520;DHT22;17300;50.374;8.006;2022-07-22T13:59:54;36.10;27.70
30520;DHT22;17300;50.374;8.006;2022-07-22T14:02:21;36.00;27.80
30520;DHT22;17300;50.374;8.006;2022-07-22T14:04:48;35.90;27.50
30520;DHT22;17300;50.374;8.006;2022-07-22T14:07:15;35.90;27.80
30520;DHT22;17300;50.374;8.006;2022-07-22T14:09:41;35.80;27.90
30520;DHT22;17300;50.374;8.006;2022-07-22T14:12:09;35.70;27.90
30520;DHT22;17300;50.374;8.006;2022-07-22T14:14:37;35.70;28.10
30520;DHT22;17300;50.374;8.006;2022-07-22T14:17:04;35.60;28.30
30520;DHT22;17300;50.374;8.006;2022-07-22T14:19:30;35.60;27.90
30520;DHT22;17300;50.374;8.006;2022-07-22T14:21:57;35.50;28.10
30520;DHT22;17300;50.374;8.006;2022-07-22T14:24:24;35.30;28.30
30520;DHT22;17300;50.374;8.006;2022-07-22T14:26:53;35.20;28.40
30520;DHT22;17300;50.374;8.006;2022-07-22T14:29:20;35.10;28.60
30520;DHT22;17300;50.374;8.006;2022-07-22T14:31:49;35.00;28.70
30520;DHT22;17300;50.374;8.006;2022-07-22T14:34:17;35.00;28.80
30520;DHT22;17300;50.374;8.006;2022-07-22T14:36:43;34.90;28.70
30520;DHT22;17300;50.374;8.006;2022-07-22T14:39:10;34.80;28.90
30520;DHT22;17300;50.374;8.006;2022-07-22T14:41:37;34.80;29.10
30520;DHT22;17300;50.374;8.006;2022-07-22T14:44:04;34.70;29.00
30520;DHT22;17300;50.374;8.006;2022-07-22T14:46:31;34.60;29.10
30520;DHT22;17300;50.374;8.006;2022-07-22T14:48:59;34.60;29.30
30520;DHT22;17300;50.374;8.006;2022-07-22T14:51:26;34.50;29.40
30520;DHT22;17300;50.374;8.006;2022-07-22T14:53:53;34.40;29.30
30520;DHT22;17300;50.374;8.006;2022-07-22T14:56:19;34.30;29.40
30520;DHT22;17300;50.374;8.006;2022-07-22T14:58:46;34.30;29.50
30520;DHT22;17300;50.374;8.006;2022-07-22T15:01:13;34.20;29.40
30520;DHT22;17300;50.374;8.006;2022-07-22T15:03:40;34.10;30.00
30520;DHT22;17300;50.374;8.006;2022-07-22T15:06:08;34.00;30.00
30520;DHT22;17300;50.374;8.006;2022-07-22T15:08:36;34.00;29.70
30520;DHT22;17300;50.374;8.006;2022-07-22T15:11:02;33.90;29.90
30520;DHT22;17300;50.374;8.006;2022-07-22T15:13:29;33.70;29.80
30520;DHT22;17300;50.374;8.006;2022-07-22T15:15:57;33.60;29.90
30520;DHT22;17300;50.374;8.006;2022-07-22T15:18:24;33.60;30.00
30520;DHT22;17300;50.374;8.006;2022-07-22T15:20:51;33.50;30.00
30520;DHT22;17300;50.374;8.006;2022-07-22T15:23:21;33.40;30.00
30520;DHT22;17300;50.374;8.006;2022-07-22T15:25:48;33.30;30.30
30520;DHT22;17300;50.374;8.006;2022-07-22T15:28:15;33.20;30.30
30520;DHT22;17300;50.374;8.006;2022-07-22T15:30:41;33.20;30.40
30520;DHT22;17300;50.374;8.006;2022-07-22T15:33:08;33.10;30.50
30520;DHT22;17300;50.374;8.006;2022-07-22T15:35:35;33.10;30.80